National Weather Service United States Department of Commerce

This is an experimental project that is derived straight from the NWS Billings aviation grids. 
There is no human interaction or quality control with this forecast and amendments are not issued.

 

TAF
K3U4 071710Z 0718/0818 00000KT P6SM FEW250
     FM080900 VRB04KT P6SM BKN250
     FM081000 VRB03KT P6SM SCT250
     FM081100 VRB03KT P6SM BKN250
      AMD NOT SKED. UNFL=

TAF
KBHK 071710Z 0718/0818 30011KT P6SM FEW250
     FM072300 28010G18KT P6SM FEW250
     FM080000 28009KT P6SM FEW250
     FM080100 25007KT P6SM FEW250
     FM081400 13008KT P6SM SCT250 WS020/15040KT
     FM081600 14009KT P6SM SCT250
      AMD NOT SKED. UNFL=

TAF
K6S0 071710Z 0718/0818 24012KT P6SM SCT250
     FM072300 21012KT P6SM FEW250
     FM080500 24009KT P6SM FEW250
     FM081100 01009KT P6SM SCT250
     FM081200 03009KT P6SM BKN250
     FM081500 06010KT P6SM BKN120
      AMD NOT SKED. UNFL=

TAF
K6S1 071710Z 0718/0818 17007KT P6SM FEW250
     FM080300 19011KT P6SM FEW250
     FM080800 19008KT P6SM BKN250
     FM081100 31006KT P6SM BKN250
     FM081600 19006KT P6SM BKN250
     FM081700 17008KT P6SM BKN250
      AMD NOT SKED. UNFL=

TAF
K00F 071710Z 0718/0818 30006KT P6SM FEW250
     FM072300 VRB03KT P6SM FEW250
     FM080900 VRB04KT P6SM BKN250
     FM081000 VRB04KT P6SM SCT250
     FM081200 VRB04KT P6SM BKN250
     FM081700 16007KT P6SM BKN250
      AMD NOT SKED. UNFL=

TAF
KM46 071710Z 0718/0818 00000KT P6SM FEW250
     FM072200 24006KT P6SM FEW250
     FM072300 20006KT P6SM FEW250
     FM080700 16006KT P6SM FEW250
     FM081100 VRB04KT P6SM SCT250
     FM081200 VRB03KT P6SM BKN250
      AMD NOT SKED. UNFL=

TAF
K6S3 071710Z 0718/0818 14006KT P6SM FEW250
     FM072000 17007KT P6SM SCT250
     FM080300 19010KT P6SM FEW250
     FM080500 21008KT P6SM SCT250
     FM081000 24006KT P6SM BKN250
     FM081200 VRB03KT P6SM BKN250
      AMD NOT SKED. UNFL=

TAF
K97M 071710Z 0718/0818 29012KT P6SM SCT250
     FM080000 27007KT P6SM FEW250
     FM080100 VRB05KT P6SM FEW250
     FM080500 13007KT P6SM FEW250
     FM081500 14009KT P6SM BKN250
      AMD NOT SKED. UNFL=

TAF
K1S3 071710Z 0718/0818 VRB04KT P6SM FEW250
     FM072100 26007KT P6SM FEW250
     FM080000 VRB03KT P6SM FEW250
     FM080300 15006KT P6SM FEW250
     FM081100 VRB04KT P6SM BKN250
     FM081500 VRB05KT P6SM SCT250
      AMD NOT SKED. UNFL=

TAF
K5U7 071710Z 0718/0818 VRB03KT P6SM SCT250
     FM080100 16008KT P6SM FEW250
     FM080200 19009KT P6SM FEW250
     FM080500 22007KT P6SM FEW250
     FM081100 25006KT P6SM BKN250
     FM081700 04006KT P6SM BKN250
      AMD NOT SKED. UNFL=

TAF
K29S 071710Z 0718/0818 19013KT P6SM SCT250
     FM080300 17006KT P6SM FEW250
     FM081200 VRB05KT P6SM BKN250
     FM081500 11006KT P6SM SCT100
     FM081600 12007KT P6SM SCT100 WS020/20035KT
     FM081700 13006KT P6SM SCT100
      AMD NOT SKED. UNFL=

TAF
K00U 071710Z 0718/0818 VRB04KT P6SM FEW250
     FM072300 17006KT P6SM FEW250
     FM080500 VRB04KT P6SM FEW250
     FM081200 00000KT P6SM BKN250
      AMD NOT SKED. UNFL=

TAF
KHWQ 071710Z 0718/0818 23007KT P6SM SCT250
     FM080200 24007KT P6SM BKN250
     FM080300 23006KT P6SM SCT250
     FM081000 27006KT P6SM SCT250
     FM081100 30008KT P6SM SCT250
     FM081200 31009KT P6SM BKN250
      AMD NOT SKED. UNFL=

TAF
K6U7 071710Z 0718/0818 00000KT P6SM FEW250
     FM072100 25006KT P6SM SCT250
     FM072200 23007KT P6SM FEW250
     FM072300 20007KT P6SM FEW250
     FM080400 VRB04KT P6SM FEW250
     FM081100 00000KT P6SM BKN250
      AMD NOT SKED. UNFL=

TAF
K6S8 071710Z 0718/0818 VRB05KT P6SM SCT250
     FM072100 20009KT P6SM FEW250
     FM080000 18008KT P6SM SCT250
     FM080200 20007KT P6SM FEW250
     FM080500 23006KT P6SM FEW250
     FM081100 VRB05KT P6SM BKN250
      AMD NOT SKED. UNFL=

TAF
K80S 071710Z 0718/0818 VRB05KT P6SM SCT250
     FM072000 21008KT P6SM SCT250
     FM080500 VRB05KT P6SM FEW250
     FM081200 00000KT P6SM BKN250
      AMD NOT SKED. UNFL=

TAF
KRED 071710Z 0718/0818 13006KT P6SM FEW250
     FM072000 16008KT P6SM FEW250
     FM080200 20008KT P6SM FEW250
     FM080700 21006KT P6SM BKN250
     FM081300 VRB04KT P6SM BKN250
     FM081500 15006KT P6SM BKN250
      AMD NOT SKED. UNFL=

TAF
KRPX 071710Z 0718/0818 VRB05KT P6SM SCT250
     FM071900 20007KT P6SM SCT250
     FM072000 22008KT P6SM SCT250
     FM072300 20009KT P6SM SCT250
     FM080600 VRB05KT P6SM FEW250
     FM081200 00000KT P6SM BKN250
      AMD NOT SKED. UNFL=

TAF
K8U0 071710Z 0718/0818 22006KT P6SM SCT250
     FM080200 20009KT P6SM SCT250
     FM080500 22007KT P6SM FEW250
     FM081000 VRB05KT P6SM FEW250
     FM081200 VRB03KT P6SM BKN250
      AMD NOT SKED. UNFL=

TAF
K9U1 071710Z 0718/0818 22011KT P6SM SCT250
     FM080200 20007KT P6SM SCT250
     FM080500 VRB05KT P6SM SCT250
     FM081200 VRB04KT P6SM BKN250
     FM081300 VRB05KT P6SM BKN120
     FM081400 05007KT P6SM BKN100
      AMD NOT SKED. UNFL=